Fort Nelson Airport, British Columbia

Past 24 Hour Conditions

Date / Time
(PDT)
Conditions Temp
(°F)
Humidity
(%)
Dew Point
(°F)
Wind
(mph)
Pressure
(inches)
Visibility
(miles)
21 April 2015
1:00 Mostly Cloudy 55 39 31 SSE 6 29.7 15
00:00 Mainly Clear 57 35 30 SE 5 29.7 15
20 April 2015
23:00 Partly Cloudy 60 31 29 E 7 29.7 15
22:00 Mostly Cloudy 59 35 31 NNE 2 29.7 15
21:00 Mostly Cloudy 60 33 31 NNE 5 29.7 20
20:00 Mostly Cloudy 63 29 31 NE 5 29.7 30
19:00 Mostly Cloudy 65 27 31 ENE 7 29.7 30
18:00 Mostly Cloudy 66 27 32 E 8 29.8 30
17:00 Mostly Cloudy 67 24 29 ESE 6 29.8 30
16:00 Mostly Cloudy 68   24 30 E 7 29.8 30
15:00 Partly Cloudy 67 24 29 ESE 7 29.8 30
14:00 Partly Cloudy 66 24 28 ESE 13 gust 19 29.8 30
13:00 Partly Cloudy 63 26 28 SE 5 29.8 30
12:00 Partly Cloudy 60 30 29 SE 3 29.9 30
11:00 Partly Cloudy 56 36 29 N 2 29.9 30
10:00 Partly Cloudy 59 31 28 N 6 29.9 30
9:00 Partly Cloudy 49 38 25 calm 29.9 30
8:00 Partly Cloudy 42 48 24 calm 29.9 30
7:00 Partly Cloudy 45 50 28 calm 29.9 30
6:00 Partly Cloudy 34   64 23 calm 29.9 20
5:00 Partly Cloudy 34   63 22 calm 29.9 15
4:00 Mainly Clear 35 66 25 calm 29.9 15
3:00 Clear 36 64 25 calm 29.9 15
2:00 Clear 37 62 25 S 2 29.9 15
1:00 Clear 36 65 25 WSW 3 29.9 15
N/A Not available
↑ Highest temperature
↓ Lowest temperature

If you require additional historical weather information, please visit Climate Data Online.

What we are doing

Date modified: